createdAt,value
2022-09-25T00:00:54.990Z,33.20
2022-09-25T00:06:06.522Z,26.42
2022-09-25T00:11:11.925Z,27.30
2022-09-25T00:16:19.694Z,36.63
2022-09-25T00:21:21.736Z,31.92
2022-09-25T00:26:26.083Z,27.43
2022-09-25T00:31:29.388Z,21.10
2022-09-25T00:36:31.915Z,15.77
2022-09-25T00:41:33.591Z,18.35
2022-09-25T00:46:40.443Z,19.67
2022-09-25T00:52:03.143Z,18.35
2022-09-25T00:57:10.800Z,16.60
2022-09-25T01:02:19.982Z,24.40
2022-09-25T01:07:21.791Z,14.95
2022-09-25T01:12:23.487Z,23.13
2022-09-25T01:17:38.409Z,11.70
2022-09-25T01:22:55.158Z,13.45
2022-09-25T01:28:29.434Z,23.30
2022-09-25T01:33:37.038Z,16.73
2022-09-25T01:38:55.126Z,19.70
2022-09-25T01:43:58.714Z,13.65
2022-09-25T01:49:08.693Z,9.43
2022-09-25T01:54:17.727Z,14.13
2022-09-25T01:59:33.102Z,15.98
2022-09-25T02:04:39.230Z,19.38
2022-09-25T02:09:45.934Z,19.77
2022-09-25T02:14:59.151Z,13.43
2022-09-25T02:20:19.820Z,22.90
2022-09-25T02:25:37.612Z,23.63
2022-09-25T02:30:39.474Z,21.00
2022-09-25T02:35:42.326Z,24.15
2022-09-25T02:46:24.056Z,22.45
2022-09-25T02:52:03.462Z,22.02
2022-09-25T02:57:26.640Z,22.30
2022-09-25T03:02:31.622Z,19.80
2022-09-25T03:07:53.783Z,27.77
2022-09-25T03:12:55.413Z,21.60
2022-09-25T03:17:58.080Z,26.67
2022-09-25T03:22:59.687Z,30.05
2022-09-25T03:28:01.546Z,34.45
2022-09-25T03:33:03.228Z,30.42
2022-09-25T03:38:05.323Z,30.73
2022-09-25T03:48:07.897Z,37.22
2022-09-25T03:53:09.655Z,36.47
2022-09-25T03:58:11.322Z,37.40
2022-09-25T04:03:16.165Z,29.60
2022-09-25T04:08:17.815Z,34.70
2022-09-25T04:13:19.795Z,26.00
2022-09-25T04:18:21.482Z,30.63
2022-09-25T04:23:23.148Z,29.45
2022-09-25T04:28:25.860Z,37.47
2022-09-25T04:33:46.270Z,34.53
2022-09-25T04:38:48.615Z,36.08
2022-09-25T04:43:50.255Z,41.88
2022-09-25T04:48:51.920Z,29.35
2022-09-25T04:53:53.878Z,30.45
2022-09-25T04:58:55.929Z,30.70
2022-09-25T05:03:57.703Z,29.10
2022-09-25T05:08:59.397Z,43.35
2022-09-25T05:14:01.307Z,30.73
2022-09-25T05:19:02.996Z,38.43
2022-09-25T05:24:05.263Z,26.67
2022-09-25T05:29:07.016Z,28.67
2022-09-25T05:34:09.713Z,40.78
2022-09-25T05:39:14.424Z,33.70
2022-09-25T05:44:16.596Z,32.10
2022-09-25T05:49:18.223Z,34.30
2022-09-25T05:54:19.861Z,37.90
2022-09-25T05:59:21.545Z,35.22
2022-09-25T06:04:23.263Z,46.75
2022-09-25T06:09:24.892Z,30.20
2022-09-25T06:14:26.507Z,33.47
2022-09-25T06:19:30.991Z,35.20
2022-09-25T06:24:32.658Z,27.50
2022-09-25T06:29:34.381Z,32.38
2022-09-25T06:34:36.044Z,36.55
2022-09-25T06:39:37.993Z,40.25
2022-09-25T06:44:39.909Z,34.00
2022-09-25T06:49:41.578Z,34.78
2022-09-25T06:54:44.354Z,33.28
2022-09-25T06:59:46.331Z,37.42
2022-09-25T07:04:51.227Z,37.63
2022-09-25T07:09:53.090Z,46.63
2022-09-25T07:14:55.243Z,38.30
2022-09-25T07:19:56.924Z,37.13
2022-09-25T07:24:58.604Z,40.35
2022-09-25T07:30:00.872Z,38.83
2022-09-25T07:35:03.253Z,41.38
2022-09-25T07:40:05.434Z,35.95
2022-09-25T07:45:08.125Z,39.22
2022-09-25T07:50:15.264Z,33.15
2022-09-25T07:55:18.255Z,37.88
2022-09-25T08:00:19.960Z,36.67
2022-09-25T08:05:21.770Z,34.78
2022-09-25T08:10:23.640Z,35.03
2022-09-25T08:15:25.798Z,42.80
2022-09-25T08:20:27.472Z,38.80
2022-09-25T08:25:29.198Z,39.58
2022-09-25T08:30:31.098Z,36.03
2022-09-25T08:35:32.785Z,34.07
2022-09-25T08:40:41.794Z,32.05
2022-09-25T08:46:05.505Z,34.50
2022-09-25T08:51:09.108Z,32.63
2022-09-25T08:56:19.590Z,32.92
2022-09-25T09:01:28.425Z,35.10
2022-09-25T09:06:32.940Z,33.63
2022-09-25T09:11:44.045Z,32.25
2022-09-25T09:16:59.763Z,30.63
2022-09-25T09:22:09.422Z,34.95
2022-09-25T09:27:38.878Z,35.47
2022-09-25T09:33:01.697Z,36.25
2022-09-25T09:38:31.930Z,37.50
2022-09-25T09:44:15.417Z,34.97
2022-09-25T09:49:34.177Z,31.38
2022-09-25T09:55:02.379Z,30.55
2022-09-25T10:00:08.193Z,28.70
2022-09-25T10:05:46.783Z,28.77
2022-09-25T10:10:54.891Z,31.08
2022-09-25T10:16:00.415Z,30.00
2022-09-25T10:21:14.942Z,29.63
2022-09-25T10:26:37.864Z,27.13
2022-09-25T10:31:40.931Z,31.63
2022-09-25T10:36:46.121Z,29.95
2022-09-25T10:41:47.891Z,28.48
2022-09-25T10:47:08.012Z,29.35
2022-09-25T10:52:13.995Z,31.42
2022-09-25T10:57:34.202Z,30.83
2022-09-25T11:02:41.352Z,29.40
2022-09-25T11:07:54.954Z,27.83
2022-09-25T11:12:58.226Z,26.90
2022-09-25T11:18:00.128Z,25.70
2022-09-25T11:23:34.086Z,24.95
2022-09-25T11:28:57.596Z,26.10
2022-09-25T11:34:34.178Z,25.27
2022-09-25T11:40:00.799Z,25.40
2022-09-25T11:45:13.227Z,26.02
2022-09-25T11:50:16.964Z,25.73
2022-09-25T11:55:50.021Z,27.80
2022-09-25T12:01:08.191Z,24.88
2022-09-25T12:06:28.478Z,22.30
2022-09-25T12:11:41.380Z,25.60
2022-09-25T12:22:14.699Z,25.40
2022-09-25T12:27:48.385Z,23.60
2022-09-25T12:33:02.488Z,23.85
2022-09-25T12:38:14.403Z,25.50
2022-09-25T12:43:43.064Z,24.80
2022-09-25T12:48:52.095Z,23.48
2022-09-25T12:54:07.026Z,22.90
2022-09-25T12:59:27.337Z,20.17
2022-09-25T13:04:43.234Z,18.77
2022-09-25T13:09:47.414Z,16.70
2022-09-25T13:14:55.835Z,16.20
2022-09-25T13:20:28.680Z,14.68
2022-09-25T13:25:41.655Z,12.82
2022-09-25T13:30:57.762Z,12.45
2022-09-25T13:36:16.189Z,12.55
2022-09-25T13:41:17.860Z,11.73
2022-09-25T13:46:26.090Z,12.27
2022-09-25T13:51:35.936Z,11.43
2022-09-25T13:56:40.594Z,11.52
2022-09-25T14:01:44.397Z,10.90
2022-09-25T14:06:48.859Z,10.00
2022-09-25T14:11:59.663Z,8.90
2022-09-25T14:17:03.342Z,8.18
2022-09-25T14:22:06.558Z,9.20
2022-09-25T14:27:21.687Z,8.50
2022-09-25T14:32:54.534Z,7.93
2022-09-25T14:38:35.794Z,7.57
2022-09-25T14:44:16.499Z,7.72
2022-09-25T14:49:26.642Z,8.25
2022-09-25T14:54:31.920Z,7.60
2022-09-25T14:59:47.484Z,7.38
2022-09-25T15:04:50.719Z,7.32
2022-09-25T15:09:55.291Z,7.55
2022-09-25T15:15:00.477Z,7.13
2022-09-25T15:20:07.908Z,7.63
2022-09-25T15:25:22.708Z,7.57
2022-09-25T15:30:27.225Z,7.70
2022-09-25T15:35:30.574Z,7.82
2022-09-25T15:40:32.494Z,8.30
2022-09-25T15:45:38.017Z,8.13
2022-09-25T15:50:44.111Z,8.02
2022-09-25T15:55:46.380Z,8.23
2022-09-25T16:01:17.526Z,8.07
2022-09-25T16:06:19.322Z,7.55
2022-09-25T16:11:23.748Z,8.30
2022-09-25T16:16:30.669Z,8.73
2022-09-25T16:21:38.624Z,8.23
2022-09-25T16:26:42.826Z,8.13
2022-09-25T16:31:45.616Z,8.63
2022-09-25T16:41:51.110Z,8.88
2022-09-25T16:46:52.782Z,8.20
2022-09-25T16:51:55.775Z,6.63
2022-09-25T16:56:59.284Z,5.53
2022-09-25T17:02:04.949Z,6.20
2022-09-25T17:07:08.351Z,6.35
2022-09-25T17:12:20.015Z,5.90
2022-09-25T17:17:22.202Z,5.85
2022-09-25T17:22:29.440Z,6.40
2022-09-25T17:27:31.243Z,6.30
2022-09-25T17:32:33.005Z,5.80
2022-09-25T17:37:34.691Z,5.75
2022-09-25T17:42:36.365Z,5.53
2022-09-25T17:47:38.236Z,6.10
2022-09-25T17:52:39.863Z,6.65
2022-09-25T17:57:41.580Z,9.32
2022-09-25T18:02:43.710Z,7.13
2022-09-25T18:07:45.514Z,8.65
2022-09-25T18:12:47.256Z,6.15
2022-09-25T18:17:49.293Z,7.60
2022-09-25T18:22:51.168Z,6.63
2022-09-25T18:27:52.960Z,6.30
2022-09-25T18:32:54.619Z,6.35
2022-09-25T18:37:58.931Z,6.13
2022-09-25T18:43:01.386Z,6.65
2022-09-25T18:48:04.283Z,5.78
2022-09-25T18:58:07.826Z,6.40
2022-09-25T19:03:09.586Z,6.43
2022-09-25T19:08:11.379Z,6.55
2022-09-25T19:13:13.566Z,7.13
2022-09-25T19:18:15.367Z,9.68
2022-09-25T19:23:17.120Z,9.70
2022-09-25T19:28:19.008Z,9.67
2022-09-25T19:33:20.673Z,10.38
2022-09-25T19:38:22.291Z,11.38
2022-09-25T19:43:24.142Z,11.88
2022-09-25T19:48:26.013Z,11.67
2022-09-25T19:53:27.693Z,11.50
2022-09-25T19:58:30.478Z,12.57
2022-09-25T20:08:34.988Z,11.63
2022-09-25T20:18:38.350Z,11.88
2022-09-25T20:23:40.028Z,11.23
2022-09-25T20:28:42.680Z,11.30
2022-09-25T20:33:44.512Z,10.65
2022-09-25T20:38:53.169Z,10.65
2022-09-25T20:43:56.997Z,11.23
2022-09-25T20:48:59.713Z,9.60
2022-09-25T20:54:06.807Z,9.43
2022-09-25T20:59:09.254Z,10.30
2022-09-25T21:04:10.988Z,9.60
2022-09-25T21:09:19.944Z,9.40
2022-09-25T21:14:25.739Z,9.85
2022-09-25T21:19:28.371Z,9.95
2022-09-25T21:24:30.046Z,10.00
2022-09-25T21:29:32.214Z,9.32
2022-09-25T21:34:33.907Z,8.73
2022-09-25T21:39:35.656Z,7.80
2022-09-25T21:44:38.100Z,7.10
2022-09-25T21:49:39.831Z,7.75
2022-09-25T21:54:41.468Z,7.72
2022-09-25T21:59:43.124Z,7.43
2022-09-25T22:04:44.885Z,8.07
2022-09-25T22:09:46.477Z,8.18
2022-09-25T22:14:48.301Z,8.65
2022-09-25T22:19:50.025Z,8.18
2022-09-25T22:24:51.795Z,8.10
2022-09-25T22:29:53.387Z,8.35
2022-09-25T22:34:55.028Z,7.50
2022-09-25T22:39:56.700Z,7.93
2022-09-25T22:44:58.344Z,7.80
2022-09-25T22:50:00.337Z,7.60
2022-09-25T22:55:02.654Z,8.00
2022-09-25T23:00:09.935Z,7.78
2022-09-25T23:05:12.666Z,7.85
2022-09-25T23:15:16.145Z,8.23
2022-09-25T23:20:18.490Z,8.30
2022-09-25T23:25:20.378Z,9.52
2022-09-25T23:30:22.060Z,8.95
2022-09-25T23:35:23.650Z,8.32
2022-09-25T23:40:25.935Z,8.82
2022-09-25T23:45:28.275Z,7.85
2022-09-25T23:50:30.096Z,8.90
2022-09-25T23:55:32.016Z,9.02
